createdAt,value
2016-11-13T00:00:19.660Z,0
2016-11-13T00:01:30.014Z,0
2016-11-13T00:02:39.832Z,0
2016-11-13T00:03:49.882Z,0
2016-11-13T00:04:59.599Z,0
2016-11-13T00:06:09.610Z,0
2016-11-13T00:07:18.708Z,0
2016-11-13T00:08:28.155Z,0
2016-11-13T00:09:38.529Z,0
2016-11-13T00:10:48.668Z,0
2016-11-13T00:11:59.116Z,0
2016-11-13T00:13:09.150Z,0
2016-11-13T00:14:19.199Z,0
2016-11-13T00:15:28.915Z,0
2016-11-13T00:16:39.240Z,0
2016-11-13T00:17:49.316Z,0
2016-11-13T00:18:59.668Z,0
2016-11-13T00:20:09.710Z,0
2016-11-13T00:21:19.441Z,0
2016-11-13T00:22:29.134Z,0
2016-11-13T00:23:38.963Z,0
2016-11-13T00:24:48.051Z,0
2016-11-13T00:25:58.068Z,0
2016-11-13T00:27:08.399Z,0
2016-11-13T00:28:18.420Z,0
2016-11-13T00:29:28.450Z,0
2016-11-13T00:30:38.587Z,0
2016-11-13T00:31:47.993Z,0
2016-11-13T00:32:57.684Z,0
2016-11-13T00:34:07.079Z,0
2016-11-13T00:35:17.205Z,0
2016-11-13T00:36:26.946Z,0
2016-11-13T00:37:36.986Z,0
2016-11-13T00:38:46.706Z,0
2016-11-13T00:39:56.741Z,0
2016-11-13T00:41:06.454Z,0
2016-11-13T00:42:16.488Z,0
2016-11-13T00:43:26.505Z,0
2016-11-13T00:44:36.505Z,0
2016-11-13T00:45:46.307Z,0
2016-11-13T00:46:56.332Z,0
2016-11-13T00:48:06.038Z,0
2016-11-13T00:49:16.078Z,0
2016-11-13T00:50:25.263Z,0
2016-11-13T00:51:35.000Z,0
2016-11-13T00:52:45.047Z,0
2016-11-13T00:53:55.049Z,0
2016-11-13T00:55:04.485Z,0
2016-11-13T00:56:14.197Z,0
2016-11-13T00:57:24.254Z,0
2016-11-13T00:58:34.298Z,0
2016-11-13T00:59:43.816Z,0
2016-11-13T01:00:53.835Z,0
2016-11-13T01:02:03.864Z,0
2016-11-13T01:03:13.570Z,0
2016-11-13T01:04:23.288Z,0
2016-11-13T01:05:33.039Z,0
2016-11-13T01:06:43.070Z,0
2016-11-13T01:07:53.413Z,0
2016-11-13T01:09:03.896Z,0
2016-11-13T01:10:13.435Z,0
2016-11-13T01:11:23.920Z,0
2016-11-13T01:12:33.954Z,0
2016-11-13T01:13:44.368Z,0
2016-11-13T01:14:54.160Z,0
2016-11-13T01:16:03.979Z,0
2016-11-13T01:17:14.318Z,0
2016-11-13T01:18:24.704Z,0
2016-11-13T01:19:34.128Z,0
2016-11-13T01:20:44.479Z,0
2016-11-13T01:21:54.197Z,0
2016-11-13T01:23:03.967Z,0
2016-11-13T01:24:14.311Z,0
2016-11-13T01:25:24.040Z,0
2016-11-13T01:26:34.079Z,0
2016-11-13T01:27:44.109Z,0
2016-11-13T01:28:53.817Z,0
2016-11-13T01:30:03.839Z,0
2016-11-13T01:31:13.869Z,0
2016-11-13T01:32:23.629Z,0
2016-11-13T01:33:33.972Z,0
2016-11-13T01:34:43.765Z,0
2016-11-13T01:35:53.787Z,0
2016-11-13T01:37:03.510Z,0
2016-11-13T01:38:13.270Z,0
2016-11-13T01:39:23.336Z,0
2016-11-13T01:40:32.743Z,0
2016-11-13T01:41:43.066Z,0
2016-11-13T01:42:52.762Z,0
2016-11-13T01:44:03.203Z,0
2016-11-13T01:45:13.619Z,0
2016-11-13T01:46:23.419Z,0
2016-11-13T01:47:32.805Z,0
2016-11-13T01:48:42.207Z,0
2016-11-13T01:49:52.550Z,0
2016-11-13T01:51:02.871Z,0
2016-11-13T01:52:12.898Z,0
2016-11-13T01:53:22.600Z,0
2016-11-13T01:54:32.931Z,0
2016-11-13T01:55:42.628Z,0
2016-11-13T01:56:52.352Z,0
2016-11-13T01:58:02.373Z,0
2016-11-13T01:59:12.072Z,0
2016-11-13T02:00:22.457Z,0
2016-11-13T02:01:32.296Z,0
2016-11-13T02:02:42.345Z,0
2016-11-13T02:03:52.067Z,0
2016-11-13T02:05:01.459Z,0
2016-11-13T02:06:11.175Z,0
2016-11-13T02:07:20.575Z,0
2016-11-13T02:08:30.279Z,0
2016-11-13T02:09:39.679Z,0
2016-11-13T02:10:49.691Z,0
2016-11-13T02:12:00.034Z,0
2016-11-13T02:13:09.429Z,0
2016-11-13T02:14:19.260Z,0
2016-11-13T02:15:29.623Z,0
2016-11-13T02:16:39.340Z,0
2016-11-13T02:17:49.687Z,0
2016-11-13T02:18:59.759Z,0
2016-11-13T02:20:08.884Z,0
2016-11-13T02:21:18.620Z,0
2016-11-13T02:22:28.938Z,0
2016-11-13T02:23:38.669Z,0
2016-11-13T02:24:48.700Z,0
2016-11-13T02:25:58.781Z,0
2016-11-13T02:27:08.797Z,0
2016-11-13T02:28:18.799Z,0
2016-11-13T02:29:28.492Z,0
2016-11-13T02:30:38.973Z,0
2016-11-13T02:31:48.398Z,0
2016-11-13T02:32:58.431Z,0
2016-11-13T02:34:07.827Z,0
2016-11-13T02:35:17.535Z,0
2016-11-13T02:36:27.611Z,0
2016-11-13T02:37:37.304Z,0
2016-11-13T02:38:47.752Z,0
2016-11-13T02:39:56.879Z,0
2016-11-13T02:41:07.193Z,0
2016-11-13T02:42:16.892Z,0
2016-11-13T02:43:26.919Z,0
2016-11-13T02:44:36.748Z,0
2016-11-13T02:45:46.759Z,0
2016-11-13T02:46:56.471Z,0
2016-11-13T02:48:05.898Z,0
2016-11-13T02:49:16.279Z,0
2016-11-13T02:50:25.746Z,0
2016-11-13T02:51:35.468Z,0
2016-11-13T02:52:45.877Z,0
2016-11-13T02:53:55.287Z,0
2016-11-13T02:55:04.736Z,0
2016-11-13T02:56:14.485Z,0
2016-11-13T02:57:24.869Z,0
2016-11-13T02:58:34.749Z,0
2016-11-13T02:59:44.877Z,0
2016-11-13T03:00:55.200Z,0
2016-11-13T03:02:05.231Z,0
2016-11-13T03:03:14.917Z,0
2016-11-13T03:04:25.063Z,0
2016-11-13T03:05:35.077Z,0
2016-11-13T03:06:44.802Z,0
2016-11-13T03:07:54.858Z,0
2016-11-13T03:09:04.927Z,0
2016-11-13T03:10:14.937Z,0
2016-11-13T03:11:24.023Z,0
2016-11-13T03:12:34.028Z,0
2016-11-13T03:13:43.112Z,0
2016-11-13T03:14:53.114Z,0
2016-11-13T03:16:02.805Z,0
2016-11-13T03:17:13.134Z,0
2016-11-13T03:18:23.506Z,0
2016-11-13T03:19:33.826Z,0
2016-11-13T03:20:43.527Z,0
2016-11-13T03:21:52.938Z,0
2016-11-13T03:23:02.322Z,0
2016-11-13T03:24:12.026Z,0
2016-11-13T03:25:22.056Z,0
2016-11-13T03:26:31.468Z,0
2016-11-13T03:27:41.809Z,0
2016-11-13T03:28:52.122Z,0
2016-11-13T03:30:02.124Z,0
2016-11-13T03:31:12.149Z,0
2016-11-13T03:32:21.849Z,0
2016-11-13T03:33:31.551Z,0
2016-11-13T03:34:41.248Z,0
2016-11-13T03:35:50.639Z,0
2016-11-13T03:37:00.959Z,0
2016-11-13T03:38:10.742Z,0
2016-11-13T03:39:20.792Z,0
2016-11-13T03:40:30.179Z,0
2016-11-13T03:41:39.586Z,0
2016-11-13T03:42:49.902Z,0
2016-11-13T03:44:00.234Z,0
2016-11-13T03:45:09.931Z,0
2016-11-13T03:46:19.618Z,0
2016-11-13T03:47:29.327Z,0
2016-11-13T03:48:39.357Z,0
2016-11-13T03:49:49.380Z,0
2016-11-13T03:50:59.452Z,0
2016-11-13T03:52:09.246Z,0
2016-11-13T03:53:19.401Z,0
2016-11-13T03:54:29.765Z,0
2016-11-13T03:55:39.821Z,0
2016-11-13T03:56:49.531Z,0
2016-11-13T03:57:59.554Z,0
2016-11-13T03:59:08.986Z,0
2016-11-13T04:00:18.697Z,0
2016-11-13T04:01:28.714Z,0
2016-11-13T04:02:38.276Z,0
2016-11-13T04:03:48.602Z,0
2016-11-13T04:04:58.305Z,0
2016-11-13T04:06:07.735Z,0
2016-11-13T04:07:17.177Z,0
2016-11-13T04:08:27.182Z,0
2016-11-13T04:09:37.241Z,0
2016-11-13T04:10:47.026Z,0
2016-11-13T04:11:57.037Z,0
2016-11-13T04:13:07.084Z,0
2016-11-13T04:14:17.209Z,0
2016-11-13T04:15:27.225Z,0
2016-11-13T04:16:36.989Z,0
2016-11-13T04:17:47.005Z,0
2016-11-13T04:18:57.025Z,0
2016-11-13T04:20:07.335Z,0
2016-11-13T04:21:16.729Z,0
2016-11-13T04:22:26.803Z,0
2016-11-13T04:23:36.820Z,0
2016-11-13T04:24:47.147Z,0
2016-11-13T04:25:57.207Z,0
2016-11-13T04:27:07.217Z,0
2016-11-13T04:28:17.216Z,0
2016-11-13T04:29:27.236Z,0
2016-11-13T04:30:36.614Z,0
2016-11-13T04:31:46.632Z,0
2016-11-13T04:32:56.684Z,0
2016-11-13T04:34:06.118Z,0
2016-11-13T04:35:15.834Z,0
2016-11-13T04:36:25.880Z,0
2016-11-13T04:37:36.251Z,0
2016-11-13T04:38:46.316Z,0
2016-11-13T04:39:56.053Z,0
2016-11-13T04:41:05.158Z,0
2016-11-13T04:42:15.168Z,0
2016-11-13T04:43:25.302Z,0
2016-11-13T04:44:35.009Z,0
2016-11-13T04:45:44.408Z,0
2016-11-13T04:46:54.544Z,0
2016-11-13T04:48:03.974Z,0
2016-11-13T04:49:13.665Z,0
2016-11-13T04:50:22.768Z,0
2016-11-13T04:51:32.198Z,0
2016-11-13T04:52:42.257Z,0
2016-11-13T04:53:51.968Z,0
2016-11-13T04:55:02.037Z,0
2016-11-13T04:56:11.727Z,0
2016-11-13T04:57:21.509Z,0
2016-11-13T04:58:31.518Z,0
2016-11-13T04:59:41.555Z,0
2016-11-13T05:00:51.717Z,0
2016-11-13T05:02:01.138Z,0
2016-11-13T05:03:10.840Z,0
2016-11-13T05:04:20.834Z,0
2016-11-13T05:05:30.232Z,0
2016-11-13T05:06:39.674Z,0
2016-11-13T05:07:49.380Z,0
2016-11-13T05:08:59.708Z,0
2016-11-13T05:10:09.973Z,0
2016-11-13T05:11:19.990Z,0
2016-11-13T05:12:29.749Z,0
2016-11-13T05:13:40.196Z,0
2016-11-13T05:14:50.535Z,0
2016-11-13T05:16:00.586Z,0
2016-11-13T05:17:10.105Z,0
2016-11-13T05:18:20.399Z,0
2016-11-13T05:19:30.388Z,0
2016-11-13T05:20:40.093Z,0
2016-11-13T05:21:49.830Z,0
2016-11-13T05:23:00.148Z,0
2016-11-13T05:24:10.165Z,0
2016-11-13T05:25:19.954Z,0
2016-11-13T05:26:29.967Z,0
2016-11-13T05:27:39.768Z,0
2016-11-13T05:28:49.877Z,0
2016-11-13T05:29:58.949Z,0
2016-11-13T05:31:08.658Z,0
2016-11-13T05:32:18.656Z,0
2016-11-13T05:33:28.767Z,0
2016-11-13T05:34:38.470Z,0
2016-11-13T05:35:48.778Z,0
2016-11-13T05:36:58.824Z,0
2016-11-13T05:38:08.678Z,0
2016-11-13T05:39:18.785Z,0
2016-11-13T05:40:28.788Z,0
2016-11-13T05:41:38.483Z,0
2016-11-13T05:42:47.927Z,0
2016-11-13T05:43:57.623Z,0
2016-11-13T05:45:07.100Z,0
2016-11-13T05:46:17.091Z,0
2016-11-13T05:47:27.036Z,0
2016-11-13T05:48:36.926Z,0
2016-11-13T05:49:47.000Z,0
2016-11-13T05:50:56.415Z,0
2016-11-13T05:52:06.108Z,0
2016-11-13T05:53:16.235Z,0
2016-11-13T05:54:25.657Z,0
2016-11-13T05:55:35.807Z,0
2016-11-13T05:56:44.904Z,0
2016-11-13T05:57:54.821Z,0
2016-11-13T05:59:05.230Z,0
2016-11-13T06:00:14.617Z,0
2016-11-13T06:01:23.998Z,0
2016-11-13T06:02:34.055Z,0
2016-11-13T06:03:44.366Z,0
2016-11-13T06:04:54.151Z,0
2016-11-13T06:06:04.166Z,0
2016-11-13T06:07:14.169Z,0
2016-11-13T06:08:23.908Z,0
2016-11-13T06:09:33.641Z,0
2016-11-13T06:10:43.644Z,0
2016-11-13T06:11:53.352Z,0
2016-11-13T06:13:03.367Z,0
2016-11-13T06:14:13.408Z,0
2016-11-13T06:15:22.539Z,0
2016-11-13T06:16:32.174Z,4
2016-11-13T06:17:41.977Z,4
2016-11-13T06:18:51.680Z,4
2016-11-13T06:20:01.678Z,4
2016-11-13T06:21:11.685Z,4
2016-11-13T06:22:21.687Z,4
2016-11-13T06:23:31.118Z,4
2016-11-13T06:24:41.449Z,8
2016-11-13T06:25:50.840Z,8
2016-11-13T06:27:01.078Z,8
2016-11-13T06:28:11.139Z,12
2016-11-13T06:29:20.868Z,12
2016-11-13T06:30:30.625Z,12
2016-11-13T06:31:40.673Z,16
2016-11-13T06:32:50.682Z,20
2016-11-13T06:34:00.131Z,20
2016-11-13T06:35:09.659Z,24
2016-11-13T06:36:19.348Z,28
2016-11-13T06:37:29.497Z,28
2016-11-13T06:38:38.907Z,32
2016-11-13T06:39:48.917Z,36
2016-11-13T06:40:58.955Z,40
2016-11-13T06:42:09.286Z,44
2016-11-13T06:43:19.594Z,48
2016-11-13T06:44:29.918Z,52
2016-11-13T06:45:39.325Z,56
2016-11-13T06:46:49.033Z,60
2016-11-13T06:47:59.155Z,68
2016-11-13T06:49:08.867Z,72
2016-11-13T06:50:18.405Z,76
2016-11-13T06:51:28.110Z,84
2016-11-13T06:52:38.139Z,92
2016-11-13T06:53:47.823Z,96
2016-11-13T06:54:57.939Z,104
2016-11-13T06:56:07.565Z,112
2016-11-13T06:57:17.798Z,116
2016-11-13T06:58:27.548Z,124
2016-11-13T06:59:36.929Z,136
2016-11-13T07:00:47.269Z,144
2016-11-13T07:01:57.038Z,148
2016-11-13T07:03:06.737Z,156
2016-11-13T07:04:17.057Z,164
2016-11-13T07:05:27.064Z,172
2016-11-13T07:06:37.136Z,176
2016-11-13T07:07:46.847Z,184
2016-11-13T07:08:56.555Z,188
2016-11-13T07:10:06.381Z,200
2016-11-13T07:11:16.707Z,204
2016-11-13T07:12:27.150Z,216
2016-11-13T07:13:36.537Z,224
2016-11-13T07:14:46.613Z,232
2016-11-13T07:15:56.016Z,244
2016-11-13T07:17:06.339Z,252
2016-11-13T07:18:15.749Z,264
2016-11-13T07:19:25.819Z,272
2016-11-13T07:20:35.526Z,280
2016-11-13T07:21:45.905Z,292
2016-11-13T07:22:56.018Z,304
2016-11-13T07:24:06.049Z,312
2016-11-13T07:25:15.437Z,324
2016-11-13T07:26:25.545Z,340
2016-11-13T07:27:34.937Z,348
2016-11-13T07:28:44.345Z,364
2016-11-13T07:29:54.488Z,380
2016-11-13T07:31:04.314Z,396
2016-11-13T07:32:13.739Z,404
2016-11-13T07:33:23.759Z,424
2016-11-13T07:34:33.792Z,432
2016-11-13T07:35:43.818Z,444
2016-11-13T07:36:53.837Z,456
2016-11-13T07:38:03.986Z,464
2016-11-13T07:39:14.333Z,476
2016-11-13T07:40:24.368Z,484
2016-11-13T07:41:34.704Z,500
2016-11-13T07:42:44.717Z,516
2016-11-13T07:43:54.424Z,532
2016-11-13T07:45:04.753Z,544
2016-11-13T07:46:14.602Z,560
2016-11-13T07:47:24.630Z,576
2016-11-13T07:48:34.976Z,592
2016-11-13T07:49:45.454Z,604
2016-11-13T07:50:55.867Z,616
2016-11-13T07:52:05.867Z,632
2016-11-13T07:53:15.556Z,644
2016-11-13T07:54:25.891Z,660
2016-11-13T07:55:35.904Z,676
2016-11-13T07:56:45.975Z,696
2016-11-13T07:57:55.999Z,708
2016-11-13T07:59:06.427Z,724
2016-11-13T08:00:15.837Z,732
2016-11-13T08:01:25.939Z,744
2016-11-13T08:02:36.015Z,760
2016-11-13T08:03:45.877Z,768
2016-11-13T08:04:56.028Z,780
2016-11-13T08:06:06.488Z,796
2016-11-13T08:07:16.764Z,812
2016-11-13T08:08:26.906Z,820
2016-11-13T08:09:37.188Z,836
2016-11-13T08:10:46.940Z,844
2016-11-13T08:11:56.039Z,852
2016-11-13T08:13:06.233Z,864
2016-11-13T08:14:16.567Z,868
2016-11-13T08:15:26.609Z,876
2016-11-13T08:16:36.620Z,884
2016-11-13T08:17:46.739Z,904
2016-11-13T08:18:57.125Z,920
2016-11-13T08:20:06.921Z,940
2016-11-13T08:21:16.938Z,960
2016-11-13T08:22:27.060Z,980
2016-11-13T08:23:37.394Z,1000
2016-11-13T08:24:47.753Z,1020
2016-11-13T08:25:58.170Z,1036
2016-11-13T08:27:07.927Z,1044
2016-11-13T08:28:18.220Z,1056
2016-11-13T08:29:28.712Z,1060
2016-11-13T08:30:38.737Z,1068
2016-11-13T08:31:48.581Z,1080
2016-11-13T08:32:58.618Z,1088
2016-11-13T08:34:08.017Z,1104
2016-11-13T08:35:18.197Z,1116
2016-11-13T08:36:29.516Z,1128
2016-11-13T08:37:39.252Z,1136
2016-11-13T08:38:48.983Z,1144
2016-11-13T08:39:59.051Z,1156
2016-11-13T08:41:08.867Z,1164
2016-11-13T08:42:19.215Z,1180
2016-11-13T08:43:28.618Z,1196
2016-11-13T08:44:38.667Z,1212
2016-11-13T08:45:48.079Z,1228
2016-11-13T08:46:57.788Z,1244
2016-11-13T08:48:07.509Z,1256
2016-11-13T08:49:17.823Z,1268
2016-11-13T08:50:28.282Z,1280
2016-11-13T08:51:38.623Z,1300
2016-11-13T08:52:48.870Z,1320
2016-11-13T08:53:58.689Z,1344
2016-11-13T08:55:08.739Z,1364
2016-11-13T08:56:18.589Z,1388
2016-11-13T08:57:29.185Z,1408
2016-11-13T08:58:39.580Z,1436
2016-11-13T08:59:49.758Z,1456
2016-11-13T09:01:00.108Z,1472
2016-11-13T09:02:09.522Z,1488
2016-11-13T09:03:18.595Z,1496
2016-11-13T09:04:28.447Z,1512
2016-11-13T09:05:38.938Z,1524
2016-11-13T09:06:48.660Z,1540
2016-11-13T09:07:59.195Z,1560
2016-11-13T09:09:08.708Z,1584
2016-11-13T09:10:18.752Z,1604
2016-11-13T09:11:28.537Z,1628
2016-11-13T09:12:39.097Z,1656
2016-11-13T09:13:48.827Z,1680
2016-11-13T09:14:58.686Z,1712
2016-11-13T09:16:08.430Z,1740
2016-11-13T09:17:18.778Z,1764
2016-11-13T09:18:28.639Z,1788
2016-11-13T09:19:38.988Z,1808
2016-11-13T09:20:49.068Z,1820
2016-11-13T09:21:59.206Z,1836
2016-11-13T09:23:08.631Z,1840
2016-11-13T09:24:18.708Z,1848
2016-11-13T09:25:29.060Z,1852
2016-11-13T09:26:39.179Z,1848
2016-11-13T09:27:49.211Z,1844
2016-11-13T09:28:58.916Z,1840
2016-11-13T09:30:08.787Z,1824
2016-11-13T09:31:19.137Z,1808
2016-11-13T09:32:28.940Z,1792
2016-11-13T09:33:38.985Z,1768
2016-11-13T09:34:49.468Z,1748
2016-11-13T09:35:59.796Z,1728
2016-11-13T09:37:09.569Z,1704
2016-11-13T09:38:19.657Z,1688
2016-11-13T09:39:30.271Z,1680
2016-11-13T09:40:40.623Z,1672
2016-11-13T09:41:50.028Z,1672
2016-11-13T09:43:00.042Z,1672
2016-11-13T09:44:10.065Z,1680
2016-11-13T09:45:20.088Z,1692
2016-11-13T09:46:29.779Z,1704
2016-11-13T09:47:39.179Z,1712
2016-11-13T09:48:49.226Z,1720
2016-11-13T09:49:59.119Z,1736
2016-11-13T09:51:08.908Z,1748
2016-11-13T09:52:19.484Z,1768
2016-11-13T09:53:29.656Z,1784
2016-11-13T09:54:39.699Z,1808
2016-11-13T09:55:50.049Z,1820
2016-11-13T09:57:00.387Z,1836
2016-11-13T09:58:10.105Z,1852
2016-11-13T09:59:19.531Z,1868
2016-11-13T10:00:29.887Z,1888
2016-11-13T10:01:39.896Z,1900
2016-11-13T10:02:49.608Z,1912
2016-11-13T10:04:00.067Z,1916
2016-11-13T10:05:09.778Z,1912
2016-11-13T10:06:18.877Z,1916
2016-11-13T10:07:29.267Z,1912
2016-11-13T10:08:39.169Z,1916
2016-11-13T10:09:49.656Z,1924
2016-11-13T10:10:59.427Z,1932
2016-11-13T10:12:09.459Z,1940
2016-11-13T10:13:19.897Z,1956
2016-11-13T10:14:30.239Z,1972
2016-11-13T10:15:40.321Z,1988
2016-11-13T10:16:50.328Z,2008
2016-11-13T10:17:59.812Z,2032
2016-11-13T10:19:09.966Z,2052
2016-11-13T10:20:20.086Z,2060
2016-11-13T10:21:30.144Z,2076
2016-11-13T10:22:40.211Z,2088
2016-11-13T10:23:50.564Z,2096
2016-11-13T10:25:00.051Z,2096
2016-11-13T10:26:10.081Z,2092
2016-11-13T10:27:20.419Z,2088
2016-11-13T10:28:30.427Z,2076
2016-11-13T10:29:40.474Z,2068
2016-11-13T10:30:49.928Z,2060
2016-11-13T10:31:59.327Z,2052
2016-11-13T10:33:09.729Z,2036
2016-11-13T10:34:19.451Z,2020
2016-11-13T10:35:29.320Z,2012
2016-11-13T10:36:39.658Z,1996
2016-11-13T10:37:49.685Z,1988
2016-11-13T10:39:00.050Z,1996
2016-11-13T10:40:10.075Z,2008
2016-11-13T10:41:19.812Z,2028
2016-11-13T10:42:29.976Z,2052
2016-11-13T10:43:40.098Z,2076
2016-11-13T10:44:50.168Z,2096
2016-11-13T10:46:00.492Z,2108
2016-11-13T10:47:10.670Z,2120
2016-11-13T10:48:20.705Z,2124
2016-11-13T10:49:30.928Z,2116
2016-11-13T10:50:41.035Z,2108
2016-11-13T10:51:51.728Z,2092
2016-11-13T10:53:02.264Z,2076
2016-11-13T10:54:11.846Z,2060
2016-11-13T10:55:21.886Z,2048
2016-11-13T10:56:31.976Z,2032
2016-11-13T10:57:41.708Z,2016
2016-11-13T10:58:52.113Z,2012
2016-11-13T11:00:02.248Z,2004
2016-11-13T11:01:12.690Z,1988
2016-11-13T11:02:22.429Z,1972
2016-11-13T11:03:31.880Z,1956
2016-11-13T11:04:42.013Z,1928
2016-11-13T11:05:52.392Z,1900
2016-11-13T11:07:02.556Z,1852
2016-11-13T11:08:12.668Z,1832
2016-11-13T11:09:22.719Z,1812
2016-11-13T11:10:32.821Z,1820
2016-11-13T11:11:42.899Z,1808
2016-11-13T11:12:52.921Z,1764
2016-11-13T11:14:02.672Z,1776
2016-11-13T11:15:12.716Z,1748
2016-11-13T11:16:22.771Z,1720
2016-11-13T11:17:32.495Z,1680
2016-11-13T11:18:42.848Z,1644
2016-11-13T11:19:53.357Z,1616
2016-11-13T11:21:03.737Z,1624
2016-11-13T11:22:13.986Z,1656
2016-11-13T11:23:24.488Z,1652
2016-11-13T11:24:34.841Z,1616
2016-11-13T11:25:44.863Z,1628
2016-11-13T11:26:54.898Z,1672
2016-11-13T11:28:05.463Z,1644
2016-11-13T11:29:15.544Z,1624
2016-11-13T11:30:25.248Z,1640
2016-11-13T11:31:35.417Z,1660
2016-11-13T11:32:45.776Z,1672
2016-11-13T11:33:55.863Z,1692
2016-11-13T11:35:05.928Z,1716
2016-11-13T11:36:15.676Z,1704
2016-11-13T11:37:25.720Z,1704
2016-11-13T11:38:36.066Z,1744
2016-11-13T11:39:46.111Z,1792
2016-11-13T11:40:55.923Z,1828
2016-11-13T11:42:06.070Z,1836
2016-11-13T11:43:16.130Z,1864
2016-11-13T11:44:26.171Z,1908
2016-11-13T11:45:36.598Z,1964
2016-11-13T11:46:47.321Z,2020
2016-11-13T11:47:57.574Z,2060
2016-11-13T11:49:07.947Z,2088
2016-11-13T11:50:18.002Z,2108
2016-11-13T11:51:28.084Z,2128
2016-11-13T11:52:37.891Z,2128
2016-11-13T11:53:47.715Z,2112
2016-11-13T11:54:58.066Z,692
2016-11-13T12:14:21.284Z,5820
2016-11-13T12:15:31.674Z,5692
2016-11-13T12:16:41.468Z,5584
2016-11-13T12:17:52.156Z,5508
2016-11-13T12:19:01.732Z,5408
2016-11-13T12:20:11.829Z,5280
2016-11-13T12:21:22.726Z,5172
2016-11-13T12:22:32.844Z,5100
2016-11-13T12:23:43.034Z,5016
2016-11-13T12:24:52.816Z,4948
2016-11-13T12:26:03.255Z,4888
2016-11-13T12:27:13.602Z,4856
2016-11-13T12:28:23.693Z,4828
2016-11-13T12:29:34.035Z,4796
2016-11-13T12:30:44.400Z,4756
2016-11-13T12:31:54.388Z,4724
2016-11-13T12:33:04.736Z,4716
2016-11-13T12:34:14.650Z,4708
2016-11-13T12:35:24.687Z,4704
2016-11-13T12:36:35.176Z,4700
2016-11-13T12:37:45.505Z,4700
2016-11-13T12:38:55.832Z,4716
2016-11-13T12:40:06.176Z,4728
2016-11-13T12:41:16.592Z,4720
2016-11-13T12:42:26.551Z,4692
2016-11-13T12:43:37.590Z,4648
2016-11-13T12:44:47.314Z,4572
2016-11-13T12:45:57.296Z,4484
2016-11-13T12:47:07.645Z,4392
2016-11-13T12:48:17.671Z,4316
2016-11-13T12:49:27.119Z,4216
2016-11-13T12:50:36.837Z,4128
2016-11-13T12:51:47.217Z,4060
2016-11-13T12:52:56.957Z,3992
2016-11-13T12:54:06.086Z,3904
2016-11-13T12:55:15.823Z,3820
2016-11-13T12:56:25.560Z,3736
2016-11-13T12:57:35.907Z,3652
2016-11-13T12:58:46.245Z,3568
2016-11-13T12:59:56.656Z,3496
2016-11-13T13:01:07.306Z,3428
2016-11-13T13:02:17.891Z,3376
2016-11-13T13:03:27.901Z,3336
2016-11-13T13:04:37.937Z,3312
2016-11-13T13:05:48.055Z,3300
2016-11-13T13:06:58.214Z,3304
2016-11-13T13:08:08.294Z,3324
2016-11-13T13:09:18.696Z,3364
2016-11-13T13:10:29.137Z,3412
2016-11-13T13:11:39.246Z,3464
2016-11-13T13:12:49.528Z,3516
2016-11-13T13:13:59.557Z,3560
2016-11-13T13:15:09.928Z,3584
2016-11-13T13:16:20.327Z,3592
2016-11-13T13:17:30.676Z,3596
2016-11-13T13:18:40.808Z,3628
2016-11-13T13:19:50.835Z,3680
2016-11-13T13:21:00.596Z,3744
2016-11-13T13:22:10.656Z,3808
2016-11-13T13:23:20.758Z,3864
2016-11-13T13:24:30.809Z,3916
2016-11-13T13:25:40.564Z,3964
2016-11-13T13:26:50.256Z,4016
2016-11-13T13:28:00.599Z,4068
2016-11-13T13:29:10.650Z,4128
2016-11-13T13:30:21.133Z,4184
2016-11-13T13:31:31.450Z,4244
2016-11-13T13:32:40.906Z,4304
2016-11-13T13:33:50.965Z,4368
2016-11-13T13:35:01.028Z,4420
2016-11-13T13:36:11.386Z,4472
2016-11-13T13:37:21.083Z,4528
2016-11-13T13:38:31.088Z,4572
2016-11-13T13:39:41.145Z,4596
2016-11-13T13:40:51.599Z,4580
2016-11-13T13:42:01.970Z,4516
2016-11-13T13:43:12.309Z,4484
2016-11-13T13:44:22.370Z,4464
2016-11-13T13:45:32.391Z,4456
2016-11-13T13:46:42.769Z,4472
2016-11-13T13:47:53.409Z,4496
2016-11-13T13:49:03.799Z,4492
2016-11-13T13:50:13.501Z,4472
2016-11-13T13:51:23.933Z,4456
2016-11-13T13:52:33.379Z,4400
2016-11-13T13:53:43.500Z,4324
2016-11-13T13:54:53.858Z,4228
2016-11-13T13:56:04.203Z,4140
2016-11-13T13:57:14.579Z,4080
2016-11-13T13:58:24.611Z,3988
2016-11-13T13:59:34.318Z,3896
2016-11-13T14:00:44.688Z,3820
2016-11-13T14:01:54.858Z,3712
2016-11-13T14:03:05.317Z,3616
2016-11-13T14:04:15.068Z,3512
2016-11-13T14:05:24.810Z,3396
2016-11-13T14:06:35.277Z,3264
2016-11-13T14:07:45.626Z,3140
2016-11-13T14:08:55.656Z,3024
2016-11-13T14:10:05.425Z,2920
2016-11-13T14:11:15.835Z,2844
2016-11-13T14:12:26.210Z,2780
2016-11-13T14:13:36.635Z,2728
2016-11-13T14:14:47.055Z,2676
2016-11-13T14:15:57.208Z,2632
2016-11-13T14:17:07.353Z,2588
2016-11-13T14:18:17.409Z,2556
2016-11-13T14:19:27.702Z,2528
2016-11-13T14:20:37.304Z,2508
2016-11-13T14:21:47.411Z,2488
2016-11-13T14:22:57.591Z,2476
2016-11-13T14:24:08.027Z,2452
2016-11-13T14:25:18.393Z,2428
2016-11-13T14:26:28.439Z,2408
2016-11-13T14:27:38.518Z,2384
2016-11-13T14:28:48.877Z,2352
2016-11-13T14:29:59.233Z,2320
2016-11-13T14:31:08.991Z,2284
2016-11-13T14:32:19.097Z,2252
2016-11-13T14:33:29.115Z,2216
2016-11-13T14:34:39.481Z,2180
2016-11-13T14:35:49.832Z,2144
2016-11-13T14:36:59.954Z,2108
2016-11-13T14:38:10.198Z,2080
2016-11-13T14:39:20.715Z,2048
2016-11-13T14:40:31.125Z,2016
2016-11-13T14:41:41.996Z,1980
2016-11-13T14:42:52.386Z,1944
2016-11-13T14:44:02.764Z,1908
2016-11-13T14:45:12.490Z,1872
2016-11-13T14:46:22.874Z,1824
2016-11-13T14:47:32.593Z,1780
2016-11-13T14:48:42.399Z,1736
2016-11-13T14:49:52.433Z,1696
2016-11-13T14:51:02.803Z,1656
2016-11-13T14:52:13.390Z,1616
2016-11-13T14:53:23.857Z,1572
2016-11-13T14:54:34.222Z,1524
2016-11-13T14:55:44.578Z,1484
2016-11-13T14:56:54.592Z,1444
2016-11-13T14:58:04.318Z,1400
2016-11-13T14:59:14.391Z,1344
2016-11-13T15:00:24.419Z,1288
2016-11-13T15:01:34.436Z,1228
2016-11-13T15:02:44.837Z,1172
2016-11-13T15:03:54.551Z,1120
2016-11-13T15:05:04.297Z,1068
2016-11-13T15:06:14.351Z,1020
2016-11-13T15:07:24.673Z,976
2016-11-13T15:08:34.418Z,928
2016-11-13T15:09:44.470Z,884
2016-11-13T15:10:54.500Z,848
2016-11-13T15:12:04.210Z,808
2016-11-13T15:13:14.254Z,776
2016-11-13T15:14:24.638Z,740
2016-11-13T15:15:35.036Z,704
2016-11-13T15:16:45.410Z,672
2016-11-13T15:17:55.180Z,632
2016-11-13T15:19:05.520Z,596
2016-11-13T15:20:15.880Z,564
2016-11-13T15:21:25.908Z,528
2016-11-13T15:22:35.924Z,496
2016-11-13T15:23:45.771Z,460
2016-11-13T15:24:55.551Z,428
2016-11-13T15:26:05.263Z,392
2016-11-13T15:27:15.304Z,360
2016-11-13T15:28:24.740Z,332
2016-11-13T15:29:34.529Z,304
2016-11-13T15:30:44.571Z,276
2016-11-13T15:31:54.596Z,248
2016-11-13T15:33:04.634Z,228
2016-11-13T15:34:15.251Z,204
2016-11-13T15:35:25.643Z,184
2016-11-13T15:36:35.702Z,160
2016-11-13T15:37:45.738Z,144
2016-11-13T15:38:56.006Z,128
2016-11-13T15:40:06.170Z,112
2016-11-13T15:41:16.480Z,100
2016-11-13T15:42:26.253Z,88
2016-11-13T15:43:36.646Z,76
2016-11-13T15:44:46.640Z,64
2016-11-13T15:45:57.018Z,56
2016-11-13T15:47:07.152Z,48
2016-11-13T15:48:17.221Z,40
2016-11-13T15:49:27.239Z,32
2016-11-13T15:50:37.247Z,32
2016-11-13T15:51:47.581Z,24
2016-11-13T15:52:57.629Z,20
2016-11-13T15:54:08.086Z,20
2016-11-13T15:55:18.676Z,16
2016-11-13T15:56:28.813Z,68
2016-11-13T15:57:38.539Z,64
2016-11-13T15:58:48.601Z,4
2016-11-13T15:59:58.641Z,4
2016-11-13T16:01:09.019Z,4
2016-11-13T16:02:19.356Z,4
2016-11-13T16:03:29.740Z,4
2016-11-13T16:04:40.076Z,0
2016-11-13T16:05:50.398Z,4
2016-11-13T16:07:00.438Z,4
2016-11-13T16:08:09.847Z,0
2016-11-13T16:09:19.899Z,0
2016-11-13T16:10:31.363Z,0
2016-11-13T16:11:41.729Z,0
2016-11-13T16:12:52.108Z,0
2016-11-13T16:14:02.211Z,0
2016-11-13T16:15:12.269Z,0
2016-11-13T16:16:21.985Z,0
2016-11-13T16:17:32.441Z,0
2016-11-13T16:18:42.586Z,0
2016-11-13T16:19:52.919Z,0
2016-11-13T16:21:02.977Z,0
2016-11-13T16:22:12.981Z,0
2016-11-13T16:23:23.335Z,0
2016-11-13T16:24:33.151Z,0
2016-11-13T16:25:43.578Z,0
2016-11-13T16:26:53.898Z,0
2016-11-13T16:28:03.451Z,0
2016-11-13T16:29:13.468Z,0
2016-11-13T16:30:24.028Z,0
2016-11-13T16:31:34.392Z,0
2016-11-13T16:32:44.158Z,0
2016-11-13T16:33:54.643Z,0
2016-11-13T16:35:05.006Z,0
2016-11-13T16:36:15.492Z,0
2016-11-13T16:37:25.241Z,0
2016-11-13T16:38:34.963Z,0
2016-11-13T16:39:44.979Z,0